createdAt,value
2023-06-04T00:02:02.855Z,102005.28
2023-06-04T00:07:24.712Z,102001.91
2023-06-04T00:12:46.975Z,102001.91
2023-06-04T00:18:08.941Z,101996.56
2023-06-04T00:23:30.770Z,101987.41
2023-06-04T00:28:52.605Z,101988.47
2023-06-04T00:34:14.537Z,101993.16
2023-06-04T00:39:36.348Z,101987.84
2023-06-04T00:44:59.597Z,101993.41
2023-06-04T00:50:22.490Z,101990.88
2023-06-04T00:55:44.415Z,101982.75
2023-06-04T01:01:34.196Z,101987.72
2023-06-04T01:06:59.852Z,101980.47
2023-06-04T01:12:21.977Z,101989.88
2023-06-04T01:17:52.957Z,101985.41
2023-06-04T01:23:28.531Z,101980.94
2023-06-04T01:28:52.228Z,101983.91
2023-06-04T01:34:14.098Z,101981.38
2023-06-04T01:39:36.025Z,101980.31
2023-06-04T01:44:57.969Z,101994.19
2023-06-04T01:50:20.553Z,102000.38
2023-06-04T01:55:42.512Z,101991.81
2023-06-04T02:01:06.291Z,101984.53
2023-06-04T02:06:31.329Z,101980.94
2023-06-04T02:11:53.172Z,101991.44
2023-06-04T02:17:15.184Z,101979.47
2023-06-04T02:22:37.163Z,101979.69
2023-06-04T02:27:59.014Z,101975.22
2023-06-04T02:33:21.972Z,101979.06
2023-06-04T02:38:43.825Z,101977.38
2023-06-04T02:44:05.677Z,101986.81
2023-06-04T02:49:27.521Z,101978.69
2023-06-04T02:54:49.721Z,101987.91
2023-06-04T03:00:13.882Z,101992.81
2023-06-04T03:05:38.134Z,101985.56
2023-06-04T03:11:00.026Z,101986.66
2023-06-04T03:16:22.279Z,101991.13
2023-06-04T03:21:44.189Z,101994.97
2023-06-04T03:27:07.179Z,101992.44
2023-06-04T03:32:29.176Z,101987.97
2023-06-04T03:37:51.230Z,101992.66
2023-06-04T03:43:13.219Z,101992.03
2023-06-04T03:48:35.061Z,101985.41
2023-06-04T03:53:56.918Z,101991.59
2023-06-04T03:59:18.912Z,101988.56
2023-06-04T04:04:40.756Z,101988.34
2023-06-04T04:10:03.140Z,101987.28
2023-06-04T04:15:25.081Z,102004.31
2023-06-04T04:20:47.855Z,102000.00
2023-06-04T04:26:11.435Z,101994.81
2023-06-04T04:31:33.453Z,101998.84
2023-06-04T04:36:55.524Z,101998.13
2023-06-04T04:42:17.359Z,102003.00
2023-06-04T04:47:39.794Z,102003.13
2023-06-04T04:53:02.947Z,102009.94
2023-06-04T04:58:24.965Z,102009.00
2023-06-04T05:03:46.915Z,102018.59
2023-06-04T05:09:08.997Z,102010.41
2023-06-04T05:14:30.922Z,102012.22
2023-06-04T05:19:54.049Z,102011.28
2023-06-04T05:25:16.268Z,102019.75
2023-06-04T05:30:42.928Z,102018.81
2023-06-04T05:36:05.045Z,102024.50
2023-06-04T05:41:28.936Z,102018.00
2023-06-04T05:46:51.665Z,102020.34
2023-06-04T05:52:13.546Z,102021.53
2023-06-04T05:57:35.494Z,102027.25
2023-06-04T06:02:57.851Z,102023.13
2023-06-04T06:08:20.081Z,102022.66
2023-06-04T06:13:41.960Z,102028.59
2023-06-04T06:19:04.202Z,102030.69
2023-06-04T06:24:26.971Z,102023.81
2023-06-04T06:29:48.854Z,102038.94
2023-06-04T06:35:11.249Z,102048.50
2023-06-04T06:40:33.107Z,102044.16
2023-06-04T06:45:55.141Z,102038.09
2023-06-04T06:51:17.244Z,102051.78
2023-06-04T06:56:39.064Z,102052.16
2023-06-04T07:02:00.923Z,102057.25
2023-06-04T07:07:22.834Z,102058.44
2023-06-04T07:12:44.698Z,102062.47
2023-06-04T07:18:06.538Z,102065.88
2023-06-04T07:23:28.937Z,102073.34
2023-06-04T07:28:51.047Z,102068.66
2023-06-04T07:34:12.901Z,102064.78
2023-06-04T07:39:34.865Z,102066.22
2023-06-04T07:44:56.744Z,102067.91
2023-06-04T07:50:18.623Z,102068.53
2023-06-04T07:55:40.487Z,102070.59
2023-06-04T08:01:02.504Z,102063.06
2023-06-04T08:06:25.907Z,102069.25
2023-06-04T08:11:47.800Z,102064.91
2023-06-04T08:17:09.664Z,102056.91
2023-06-04T08:22:31.562Z,102068.41
2023-06-04T08:27:53.452Z,102065.38
2023-06-04T08:33:15.371Z,102068.19
2023-06-04T08:38:37.557Z,102062.59
2023-06-04T08:44:01.785Z,102074.31
2023-06-04T08:49:26.067Z,102065.50
2023-06-04T08:54:50.596Z,102079.69
2023-06-04T09:00:13.844Z,102075.81
2023-06-04T09:05:37.220Z,102073.66
2023-06-04T09:10:59.355Z,102071.72
2023-06-04T09:16:21.200Z,102073.66
2023-06-04T09:21:53.706Z,102071.44
2023-06-04T09:27:20.040Z,102074.50
2023-06-04T09:32:42.075Z,102077.28
2023-06-04T09:38:06.289Z,102065.03
2023-06-04T09:43:28.156Z,102076.19
2023-06-04T09:48:50.022Z,102074.50
2023-06-04T09:54:12.062Z,102068.28
2023-06-04T09:59:41.145Z,102068.28
2023-06-04T10:05:03.821Z,102069.38
2023-06-04T10:10:28.262Z,102065.97
2023-06-04T10:15:51.894Z,102066.47
2023-06-04T10:21:17.664Z,102069.25
2023-06-04T10:26:45.761Z,102066.47
2023-06-04T10:32:07.778Z,102061.38
2023-06-04T10:37:30.875Z,102059.69
2023-06-04T10:42:54.647Z,102063.56
2023-06-04T10:48:16.614Z,102051.56
2023-06-04T10:53:38.905Z,102050.72
2023-06-04T10:59:01.791Z,102049.88
2023-06-04T11:04:25.077Z,102054.59
2023-06-04T11:09:51.352Z,102049.00
2023-06-04T11:15:15.879Z,102037.25
2023-06-04T11:20:37.779Z,102042.84
2023-06-04T11:26:00.182Z,102037.50
2023-06-04T11:31:22.698Z,102031.69
2023-06-04T11:36:44.599Z,102030.59
2023-06-04T11:42:09.298Z,102025.88
2023-06-04T11:47:31.494Z,102029.75
2023-06-04T11:52:54.538Z,102029.75
2023-06-04T11:58:17.076Z,102018.63
2023-06-04T12:03:43.089Z,102004.44
2023-06-04T12:09:05.743Z,102002.50
2023-06-04T12:14:29.340Z,102013.66
2023-06-04T12:19:53.379Z,102003.94
2023-06-04T12:25:27.108Z,101989.19
2023-06-04T12:30:49.188Z,102010.00
2023-06-04T12:36:11.481Z,101998.84
2023-06-04T12:41:34.753Z,102003.34
2023-06-04T12:46:56.845Z,101994.97
2023-06-04T12:52:18.948Z,101988.31
2023-06-04T12:57:40.802Z,101983.00
2023-06-04T13:03:02.719Z,101979.97
2023-06-04T13:08:25.192Z,101987.47
2023-06-04T13:13:47.346Z,101983.84
2023-06-04T13:19:09.923Z,101986.00
2023-06-04T13:24:32.335Z,101992.44
2023-06-04T13:29:54.559Z,101979.34
2023-06-04T13:35:16.689Z,101978.25
2023-06-04T13:40:38.569Z,101981.03
2023-06-04T13:46:00.484Z,101980.44
2023-06-04T13:51:22.403Z,101982.13
2023-06-04T13:56:45.981Z,101973.78
2023-06-04T14:02:08.823Z,101974.88
2023-06-04T14:07:30.711Z,101967.38
2023-06-04T14:12:52.607Z,101965.41
2023-06-04T14:18:14.548Z,101963.72
2023-06-04T14:23:36.653Z,101956.22
2023-06-04T14:28:58.912Z,101950.88
2023-06-04T14:34:21.100Z,101951.13
2023-06-04T14:39:43.216Z,101957.53
2023-06-04T14:45:05.543Z,101951.97
2023-06-04T14:50:27.428Z,101949.19
2023-06-04T14:55:49.567Z,101945.56
2023-06-04T15:01:11.924Z,101943.59
2023-06-04T15:06:34.052Z,101931.63
2023-06-04T15:11:55.927Z,101946.16
2023-06-04T15:17:17.771Z,101936.09
2023-06-04T15:22:39.641Z,101932.47
2023-06-04T15:28:01.765Z,101933.31
2023-06-04T15:33:23.636Z,101927.75
2023-06-04T15:38:45.846Z,101934.16
2023-06-04T15:44:08.056Z,101928.59
2023-06-04T15:49:30.761Z,101928.59
2023-06-04T15:54:52.551Z,101927.50
2023-06-04T16:00:14.675Z,101926.41
2023-06-04T16:05:36.488Z,101920.84
2023-06-04T16:10:58.661Z,101920.84
2023-06-04T16:16:20.586Z,101912.47
2023-06-04T16:21:42.763Z,101913.56
2023-06-04T16:27:04.738Z,101906.28
2023-06-04T16:32:26.610Z,101902.41
2023-06-04T16:37:49.739Z,101893.81
2023-06-04T16:43:11.710Z,101898.06
2023-06-04T16:48:34.036Z,101898.66
2023-06-04T16:53:55.903Z,101893.69
2023-06-04T16:59:17.864Z,101882.03
2023-06-04T17:04:39.800Z,101886.28
2023-06-04T17:10:01.699Z,101880.69
2023-06-04T17:15:23.540Z,101888.34
2023-06-04T17:20:45.426Z,101885.78
2023-06-04T17:26:08.035Z,101884.97
2023-06-04T17:31:30.125Z,101881.34
2023-06-04T17:36:52.205Z,101890.53
2023-06-04T17:42:14.054Z,101887.75
2023-06-04T17:47:36.329Z,101893.94
2023-06-04T17:53:00.144Z,101890.28
2023-06-04T17:58:22.264Z,101890.53
2023-06-04T18:03:44.339Z,101895.00
2023-06-04T18:09:07.544Z,101900.59
2023-06-04T18:14:29.390Z,101897.81
2023-06-04T18:19:52.653Z,101896.94
2023-06-04T18:25:14.566Z,101900.00
2023-06-04T18:30:36.649Z,101900.00
2023-06-04T18:35:58.532Z,101902.78
2023-06-04T18:41:20.501Z,101900.00
2023-06-04T18:46:42.446Z,101905.78
2023-06-04T18:52:04.516Z,101904.31
2023-06-04T18:57:26.373Z,101906.53
2023-06-04T19:02:48.333Z,101910.41
2023-06-04T19:08:10.345Z,101912.25
2023-06-04T19:13:32.218Z,101917.09
2023-06-04T19:18:54.078Z,101925.09
2023-06-04T19:24:16.295Z,101936.13
2023-06-04T19:29:40.020Z,101942.19
2023-06-04T19:35:02.076Z,101943.38
2023-06-04T19:40:23.887Z,101950.91
2023-06-04T19:45:50.683Z,101968.34
2023-06-04T19:51:15.090Z,101951.28
2023-06-04T19:56:38.549Z,101973.78
2023-06-04T20:02:00.785Z,101974.28
2023-06-04T20:07:22.958Z,101977.31
2023-06-04T20:12:44.783Z,101983.13
2023-06-04T20:18:07.628Z,101990.03
2023-06-04T20:23:29.548Z,102005.03
2023-06-04T20:28:53.947Z,102000.81
2023-06-04T20:34:15.847Z,102001.06
2023-06-04T20:39:40.813Z,102014.13
2023-06-04T20:45:02.678Z,102021.03
2023-06-04T20:50:24.527Z,102020.19
2023-06-04T20:55:46.452Z,102028.75
2023-06-04T21:01:08.559Z,102036.28
2023-06-04T21:06:30.466Z,102028.41
2023-06-04T21:11:52.345Z,102043.41
2023-06-04T21:17:14.429Z,102033.59
2023-06-04T21:22:36.377Z,102039.41
2023-06-04T21:27:58.207Z,102039.66
2023-06-04T21:33:20.021Z,102043.53
2023-06-04T21:38:42.547Z,102040.97
2023-06-04T21:44:04.444Z,102046.56
2023-06-04T21:49:26.940Z,102061.56
2023-06-04T21:54:48.785Z,102058.13
2023-06-04T22:00:12.852Z,102058.97
2023-06-04T22:05:34.790Z,102062.00
2023-06-04T22:10:57.178Z,102064.16
2023-06-04T22:16:19.069Z,102069.97
2023-06-04T22:21:40.887Z,102070.81
2023-06-04T22:27:02.737Z,102073.00
2023-06-04T22:32:24.624Z,102073.00
2023-06-04T22:37:46.528Z,102076.00
2023-06-04T22:43:08.570Z,102076.25
2023-06-04T22:48:30.436Z,102075.41
2023-06-04T22:53:52.330Z,102077.34
2023-06-04T22:59:14.173Z,102075.66
2023-06-04T23:04:36.101Z,102079.28
2023-06-04T23:09:58.008Z,102082.31
2023-06-04T23:15:22.583Z,102084.47
2023-06-04T23:20:44.476Z,102077.19
2023-06-04T23:26:06.716Z,102086.63
2023-06-04T23:31:28.838Z,102087.72
2023-06-04T23:36:53.499Z,102081.56
2023-06-04T23:42:15.416Z,102081.78
2023-06-04T23:47:37.355Z,102082.63
2023-06-04T23:52:59.205Z,102087.59
2023-06-04T23:58:21.622Z,102077.28
